createdAt,value
2023-04-29T00:01:32.231Z,75.88
2023-04-29T00:03:59.215Z,75.69
2023-04-29T00:06:26.325Z,75.53
2023-04-29T00:08:53.325Z,75.61
2023-04-29T00:11:20.563Z,75.43
2023-04-29T00:13:47.262Z,74.97
2023-04-29T00:16:14.063Z,74.81
2023-04-29T00:18:40.798Z,74.89
2023-04-29T00:21:07.690Z,74.51
2023-04-29T00:23:34.435Z,74.42
2023-04-29T00:26:01.186Z,74.45
2023-04-29T00:28:27.974Z,75.10
2023-04-29T00:30:56.148Z,74.67
2023-04-29T00:33:23.361Z,74.98
2023-04-29T00:35:50.603Z,74.94
2023-04-29T00:38:17.343Z,74.75
2023-04-29T00:40:45.134Z,74.66
2023-04-29T00:43:11.834Z,74.22
2023-04-29T00:45:38.747Z,74.31
2023-04-29T00:48:06.052Z,74.48
2023-04-29T00:50:33.250Z,74.71
2023-04-29T00:53:00.922Z,74.56
2023-04-29T00:55:28.861Z,74.52
2023-04-29T00:57:57.057Z,74.26
2023-04-29T01:00:26.320Z,74.80
2023-04-29T01:02:55.098Z,74.92
2023-04-29T01:05:21.913Z,74.89
2023-04-29T01:08:04.153Z,75.14
2023-04-29T01:10:55.152Z,75.21
2023-04-29T01:13:50.018Z,75.18
2023-04-29T01:16:25.676Z,75.75
2023-04-29T01:18:57.807Z,75.53
2023-04-29T01:21:31.825Z,75.92
2023-04-29T01:23:58.615Z,76.09
2023-04-29T01:26:32.755Z,75.89
2023-04-29T01:29:27.873Z,75.95
2023-04-29T01:32:13.584Z,75.73
2023-04-29T01:35:25.255Z,75.87
2023-04-29T01:38:13.972Z,75.76
2023-04-29T01:40:49.961Z,75.38
2023-04-29T01:43:30.562Z,75.14
2023-04-29T01:46:00.721Z,74.33
2023-04-29T01:48:28.416Z,73.43
2023-04-29T01:50:55.132Z,72.85
2023-04-29T01:53:21.763Z,72.53
2023-04-29T01:55:48.999Z,72.18
2023-04-29T01:58:41.803Z,72.08
2023-04-29T02:01:27.038Z,72.00
2023-04-29T02:03:54.295Z,71.20
2023-04-29T02:06:21.535Z,70.89
2023-04-29T02:08:53.648Z,70.54
2023-04-29T02:11:21.102Z,70.18
2023-04-29T02:13:48.173Z,70.07
2023-04-29T02:16:16.487Z,69.31
2023-04-29T02:18:53.715Z,69.51
2023-04-29T02:21:21.430Z,68.77
2023-04-29T02:23:48.137Z,68.56
2023-04-29T02:26:15.493Z,68.36
2023-04-29T02:28:42.592Z,68.27
2023-04-29T02:31:09.217Z,68.08
2023-04-29T02:33:36.319Z,68.25
2023-04-29T02:36:03.064Z,67.94
2023-04-29T02:38:29.775Z,68.07
2023-04-29T02:40:57.281Z,68.18
2023-04-29T02:43:24.193Z,68.04
2023-04-29T02:45:51.196Z,68.52
2023-04-29T02:48:18.072Z,68.43
2023-04-29T02:50:44.857Z,68.72
2023-04-29T02:53:11.713Z,69.34
2023-04-29T02:55:38.619Z,69.38
2023-04-29T02:58:10.463Z,69.43
2023-04-29T03:00:37.079Z,70.25
2023-04-29T03:03:03.971Z,70.92
2023-04-29T03:05:30.875Z,70.50
2023-04-29T03:07:57.975Z,71.19
2023-04-29T03:10:24.599Z,70.74
2023-04-29T03:12:51.239Z,70.92
2023-04-29T03:15:18.136Z,70.54
2023-04-29T03:17:46.629Z,70.81
2023-04-29T03:20:13.948Z,71.12
2023-04-29T03:22:40.635Z,70.60
2023-04-29T03:25:07.912Z,69.78
2023-04-29T03:27:34.678Z,69.77
2023-04-29T03:30:01.436Z,69.38
2023-04-29T03:32:28.437Z,68.62
2023-04-29T03:34:55.203Z,68.19
2023-04-29T03:37:44.759Z,67.84
2023-04-29T03:40:20.795Z,67.61
2023-04-29T03:42:48.926Z,67.79
2023-04-29T03:45:15.964Z,67.58
2023-04-29T03:47:42.855Z,67.39
2023-04-29T03:50:10.572Z,66.79
2023-04-29T03:52:37.659Z,66.86
2023-04-29T03:55:10.502Z,66.87
2023-04-29T03:57:37.454Z,67.10
2023-04-29T04:00:08.216Z,66.95
2023-04-29T04:02:44.076Z,66.58
2023-04-29T04:05:11.387Z,66.02
2023-04-29T04:07:41.023Z,66.87
2023-04-29T04:10:28.533Z,66.30
2023-04-29T04:12:56.518Z,66.29
2023-04-29T04:15:23.172Z,65.95
2023-04-29T04:17:53.006Z,65.75
2023-04-29T04:20:20.034Z,66.05
2023-04-29T04:22:48.472Z,65.79
2023-04-29T04:25:19.530Z,66.33
2023-04-29T04:27:48.859Z,66.09
2023-04-29T04:30:26.082Z,65.86
2023-04-29T04:32:52.886Z,65.74
2023-04-29T04:35:19.776Z,65.43
2023-04-29T04:37:46.816Z,65.08
2023-04-29T04:40:13.965Z,64.91
2023-04-29T04:43:00.785Z,64.94
2023-04-29T04:45:31.355Z,64.49
2023-04-29T04:47:58.804Z,64.33
2023-04-29T04:50:29.190Z,64.01
2023-04-29T04:52:57.911Z,64.19
2023-04-29T04:55:45.124Z,64.56
2023-04-29T04:58:12.177Z,63.97
2023-04-29T05:00:43.699Z,64.04
2023-04-29T05:03:10.858Z,64.31
2023-04-29T05:05:37.864Z,64.20
2023-04-29T05:08:04.810Z,64.04
2023-04-29T05:10:40.104Z,64.59
2023-04-29T05:13:07.634Z,64.43
2023-04-29T05:15:35.827Z,64.29
2023-04-29T05:18:04.167Z,64.31
2023-04-29T05:20:31.421Z,63.70
2023-04-29T05:23:00.936Z,64.15
2023-04-29T05:25:29.279Z,64.26
2023-04-29T05:27:56.690Z,64.04
2023-04-29T05:30:25.269Z,63.76
2023-04-29T05:32:52.323Z,63.82
2023-04-29T05:35:21.106Z,63.98
2023-04-29T05:37:48.161Z,63.86
2023-04-29T05:40:23.270Z,63.46
2023-04-29T05:42:52.027Z,63.38
2023-04-29T05:45:18.762Z,63.23
2023-04-29T05:47:45.600Z,63.07
2023-04-29T05:50:12.425Z,63.28
2023-04-29T05:52:39.375Z,63.24
2023-04-29T05:55:06.393Z,63.23
2023-04-29T05:57:36.374Z,63.06
2023-04-29T06:00:04.249Z,62.98
2023-04-29T06:02:54.783Z,62.96
2023-04-29T06:05:27.033Z,62.83
2023-04-29T06:08:17.923Z,62.59
2023-04-29T06:10:51.890Z,62.95
2023-04-29T06:13:18.805Z,62.71
2023-04-29T06:15:45.811Z,62.51
2023-04-29T06:18:14.075Z,63.17
2023-04-29T06:20:40.856Z,62.91
2023-04-29T06:23:07.945Z,63.05
2023-04-29T06:25:34.867Z,62.59
2023-04-29T06:28:04.684Z,62.30
2023-04-29T06:30:31.930Z,61.83
2023-04-29T06:32:58.748Z,61.83
2023-04-29T06:35:25.742Z,61.68
2023-04-29T06:37:53.156Z,61.58
2023-04-29T06:40:39.981Z,61.73
2023-04-29T06:43:33.672Z,61.75
2023-04-29T06:46:15.593Z,61.71
2023-04-29T06:48:55.126Z,61.70
2023-04-29T06:51:25.035Z,61.63
2023-04-29T06:53:51.748Z,61.55
2023-04-29T06:56:20.974Z,61.42
2023-04-29T06:58:47.691Z,61.23
2023-04-29T07:01:14.426Z,61.58
2023-04-29T07:03:43.924Z,62.19
2023-04-29T07:06:12.569Z,61.77
2023-04-29T07:08:39.434Z,61.60
2023-04-29T07:11:06.336Z,61.49
2023-04-29T07:13:33.123Z,61.07
2023-04-29T07:16:00.263Z,61.19
2023-04-29T07:18:27.382Z,61.17
2023-04-29T07:20:55.949Z,60.45
2023-04-29T07:23:22.771Z,60.47
2023-04-29T07:25:49.794Z,60.58
2023-04-29T07:28:17.201Z,60.50
2023-04-29T07:30:44.491Z,60.29
2023-04-29T07:33:11.355Z,59.65
2023-04-29T07:35:43.158Z,59.26
2023-04-29T07:38:10.303Z,58.32
2023-04-29T07:40:37.374Z,57.81
2023-04-29T07:43:08.700Z,57.39
2023-04-29T07:45:36.359Z,57.93
2023-04-29T07:48:03.163Z,57.59
2023-04-29T07:50:31.511Z,57.86
2023-04-29T07:53:00.486Z,57.97
2023-04-29T07:55:27.431Z,57.33
2023-04-29T07:57:55.577Z,57.25
2023-04-29T08:00:23.258Z,56.68
2023-04-29T08:02:54.056Z,56.50
2023-04-29T08:05:22.352Z,55.74
2023-04-29T08:07:49.924Z,55.70
2023-04-29T08:10:19.227Z,55.60
2023-04-29T08:12:46.432Z,55.79
2023-04-29T08:15:13.339Z,55.77
2023-04-29T08:17:40.881Z,55.86
2023-04-29T08:20:08.559Z,55.72
2023-04-29T08:22:35.607Z,55.42
2023-04-29T08:25:03.574Z,55.06
2023-04-29T08:27:30.376Z,54.74
2023-04-29T08:30:00.395Z,54.41
2023-04-29T08:32:27.154Z,54.54
2023-04-29T08:34:54.086Z,54.62
2023-04-29T08:37:21.206Z,54.32
2023-04-29T08:39:48.225Z,54.50
2023-04-29T08:42:14.978Z,54.32
2023-04-29T08:44:43.026Z,54.22
2023-04-29T08:47:10.372Z,53.70
2023-04-29T08:49:38.227Z,53.50
2023-04-29T08:52:05.198Z,53.25
2023-04-29T08:54:33.562Z,52.90
2023-04-29T08:57:02.764Z,53.21
2023-04-29T08:59:30.991Z,53.46
2023-04-29T09:01:58.770Z,53.59
2023-04-29T09:04:49.838Z,53.52
2023-04-29T09:07:17.652Z,53.71
2023-04-29T09:09:44.887Z,53.48
2023-04-29T09:12:11.753Z,53.38
2023-04-29T09:14:38.573Z,53.04
2023-04-29T09:17:05.429Z,53.19
2023-04-29T09:19:34.781Z,53.04
2023-04-29T09:22:04.328Z,52.96
2023-04-29T09:24:32.170Z,53.24
2023-04-29T09:27:00.282Z,52.86
2023-04-29T09:29:27.019Z,52.48
2023-04-29T09:31:53.880Z,52.19
2023-04-29T09:34:36.078Z,51.84
2023-04-29T09:37:03.038Z,51.47
2023-04-29T09:39:40.076Z,50.63
2023-04-29T09:42:06.955Z,49.66
2023-04-29T09:44:37.630Z,49.05
2023-04-29T09:47:06.778Z,48.53
2023-04-29T09:49:41.965Z,47.30
2023-04-29T09:52:12.527Z,45.97
2023-04-29T09:54:41.293Z,46.04
2023-04-29T09:57:09.789Z,44.81
2023-04-29T09:59:40.015Z,45.34
2023-04-29T10:02:15.560Z,46.30
2023-04-29T10:04:45.684Z,46.49
2023-04-29T10:07:17.018Z,46.22
2023-04-29T10:09:48.148Z,46.77
2023-04-29T10:12:20.342Z,46.64
2023-04-29T10:15:20.330Z,46.62
2023-04-29T10:17:52.717Z,46.84
2023-04-29T10:20:24.895Z,46.55
2023-04-29T10:22:59.467Z,46.42
2023-04-29T10:25:28.278Z,46.10
2023-04-29T10:27:56.267Z,46.21
2023-04-29T10:30:23.413Z,46.30
2023-04-29T10:32:52.832Z,45.04
2023-04-29T10:35:22.814Z,44.50
2023-04-29T10:37:50.082Z,43.48
2023-04-29T10:40:22.314Z,43.22
2023-04-29T10:42:51.539Z,43.32
2023-04-29T10:45:19.090Z,42.71
2023-04-29T10:48:08.590Z,42.44
2023-04-29T10:50:43.781Z,42.85
2023-04-29T10:53:11.454Z,43.39
2023-04-29T10:55:38.812Z,43.92
2023-04-29T10:58:06.546Z,43.38
2023-04-29T11:00:34.803Z,44.48
2023-04-29T11:03:02.996Z,43.68
2023-04-29T11:05:37.570Z,43.83
2023-04-29T11:08:24.542Z,43.79
2023-04-29T11:11:00.870Z,43.17
2023-04-29T11:13:30.174Z,43.50
2023-04-29T11:16:11.034Z,43.40
2023-04-29T11:19:07.749Z,43.89
2023-04-29T11:21:37.927Z,44.34
2023-04-29T11:24:06.622Z,44.77
2023-04-29T11:26:36.999Z,45.42
2023-04-29T11:29:05.595Z,44.84
2023-04-29T11:31:33.445Z,45.21
2023-04-29T11:34:00.780Z,45.37
2023-04-29T11:36:27.672Z,45.10
2023-04-29T11:38:54.523Z,45.12
2023-04-29T11:41:22.474Z,45.03
2023-04-29T11:44:01.240Z,44.81
2023-04-29T11:46:31.656Z,43.67
2023-04-29T11:49:00.198Z,44.76
2023-04-29T11:51:28.291Z,44.26
2023-04-29T11:53:58.132Z,44.50
2023-04-29T11:56:26.262Z,44.16
2023-04-29T11:58:58.040Z,42.65
2023-04-29T12:01:25.937Z,42.31
2023-04-29T12:03:58.609Z,41.00
2023-04-29T12:06:29.010Z,40.57
2023-04-29T12:08:59.411Z,39.62
2023-04-29T12:11:26.805Z,38.84
2023-04-29T12:13:55.525Z,38.10
2023-04-29T12:16:24.209Z,38.22
2023-04-29T12:18:53.213Z,38.26
2023-04-29T12:21:20.077Z,38.66
2023-04-29T12:23:47.570Z,38.70
2023-04-29T12:26:14.493Z,38.47
2023-04-29T12:28:44.467Z,38.62
2023-04-29T12:31:14.118Z,38.71
2023-04-29T12:33:42.703Z,38.87
2023-04-29T12:36:17.876Z,38.32
2023-04-29T12:38:47.841Z,38.58
2023-04-29T12:41:19.794Z,39.15
2023-04-29T12:43:46.945Z,38.65
2023-04-29T12:46:13.928Z,38.78
2023-04-29T12:48:41.975Z,38.83
2023-04-29T12:51:11.893Z,38.25
2023-04-29T12:53:39.188Z,38.90
2023-04-29T12:56:06.781Z,39.35
2023-04-29T12:58:34.902Z,39.92
2023-04-29T13:01:01.825Z,40.53
2023-04-29T13:03:28.938Z,41.01
2023-04-29T13:05:55.974Z,41.80
2023-04-29T13:08:25.528Z,42.49
2023-04-29T13:10:52.412Z,42.35
2023-04-29T13:13:19.728Z,41.65
2023-04-29T13:15:46.682Z,41.98
2023-04-29T13:18:13.329Z,42.82
2023-04-29T13:20:42.078Z,42.59
2023-04-29T13:23:09.911Z,42.38
2023-04-29T13:25:36.877Z,42.24
2023-04-29T13:28:05.935Z,41.42
2023-04-29T13:30:33.220Z,40.68
2023-04-29T13:33:08.746Z,40.36
2023-04-29T13:35:40.213Z,39.83
2023-04-29T13:38:07.891Z,39.95
2023-04-29T13:40:38.862Z,39.82
2023-04-29T13:43:09.804Z,39.60
2023-04-29T13:45:41.622Z,39.68
2023-04-29T13:48:24.683Z,39.89
2023-04-29T14:03:26.699Z,41.25
2023-04-29T14:05:53.785Z,40.79
2023-04-29T14:08:20.490Z,41.14
2023-04-29T14:10:48.018Z,40.38
2023-04-29T14:13:14.782Z,40.08
2023-04-29T14:15:42.762Z,40.17
2023-04-29T14:18:10.679Z,39.86
2023-04-29T14:20:37.640Z,40.21
2023-04-29T14:23:04.902Z,40.03
2023-04-29T14:25:33.581Z,40.46
2023-04-29T14:28:00.713Z,41.03
2023-04-29T14:30:27.369Z,41.48
2023-04-29T14:32:54.267Z,41.76
2023-04-29T14:35:21.303Z,41.74
2023-04-29T14:37:48.037Z,42.02
2023-04-29T14:40:14.740Z,42.48
2023-04-29T14:42:41.678Z,41.88
2023-04-29T14:45:08.951Z,41.92
2023-04-29T14:47:36.187Z,41.69
2023-04-29T14:50:04.455Z,42.11
2023-04-29T14:52:32.852Z,41.34
2023-04-29T14:54:59.587Z,41.72
2023-04-29T14:57:26.418Z,41.31
2023-04-29T14:59:53.132Z,40.77
2023-04-29T15:02:20.031Z,40.10
2023-04-29T15:04:47.239Z,39.91
2023-04-29T15:07:14.634Z,39.69
2023-04-29T15:09:41.973Z,39.88
2023-04-29T15:12:09.532Z,39.93
2023-04-29T15:14:36.438Z,40.62
2023-04-29T15:17:03.446Z,40.24
2023-04-29T15:19:30.265Z,40.76
2023-04-29T15:22:00.194Z,41.08
2023-04-29T15:24:29.273Z,41.19
2023-04-29T15:26:56.143Z,40.98
2023-04-29T15:29:25.314Z,40.77
2023-04-29T15:31:52.294Z,41.14
2023-04-29T15:34:19.404Z,41.24
2023-04-29T15:36:47.453Z,41.25
2023-04-29T15:39:21.603Z,42.16
2023-04-29T15:41:50.114Z,42.10
2023-04-29T15:44:16.900Z,42.37
2023-04-29T15:49:34.853Z,43.06
2023-04-29T15:52:01.793Z,43.80
2023-04-29T15:54:28.522Z,43.48
2023-04-29T15:56:55.549Z,44.00
2023-04-29T15:59:22.670Z,43.50
2023-04-29T16:01:49.467Z,43.96
2023-04-29T16:04:23.587Z,44.30
2023-04-29T16:06:52.183Z,44.63
2023-04-29T16:09:19.085Z,44.81
2023-04-29T16:11:46.157Z,44.75
2023-04-29T16:14:12.945Z,45.11
2023-04-29T16:16:39.774Z,45.22
2023-04-29T16:19:09.423Z,44.89
2023-04-29T16:21:36.360Z,44.87
2023-04-29T16:24:03.249Z,44.78
2023-04-29T16:26:30.303Z,44.81
2023-04-29T16:28:57.963Z,44.80
2023-04-29T16:31:24.719Z,44.63
2023-04-29T16:33:51.826Z,44.91
2023-04-29T16:36:20.259Z,45.17
2023-04-29T16:38:47.067Z,45.27
2023-04-29T16:41:13.997Z,44.96
2023-04-29T16:43:40.823Z,45.04
2023-04-29T16:46:09.982Z,45.30
2023-04-29T16:48:36.907Z,45.53
2023-04-29T16:51:04.302Z,46.24
2023-04-29T16:53:31.414Z,46.08
2023-04-29T16:55:58.165Z,46.46
2023-04-29T16:58:24.973Z,46.33
2023-04-29T17:00:53.478Z,46.23
2023-04-29T17:03:21.117Z,46.53
2023-04-29T17:05:48.666Z,46.83
2023-04-29T17:08:15.838Z,46.51
2023-04-29T17:10:43.890Z,46.80
2023-04-29T17:13:10.981Z,46.72
2023-04-29T17:15:37.707Z,47.12
2023-04-29T17:18:04.595Z,47.13
2023-04-29T17:20:31.848Z,47.29
2023-04-29T17:22:59.006Z,47.22
2023-04-29T17:25:26.168Z,47.29
2023-04-29T17:27:53.142Z,47.78
2023-04-29T17:30:20.244Z,48.11
2023-04-29T17:32:53.779Z,48.00
2023-04-29T17:35:23.605Z,48.36
2023-04-29T17:37:50.537Z,48.50
2023-04-29T17:40:17.291Z,49.05
2023-04-29T17:42:43.993Z,49.17
2023-04-29T17:45:11.324Z,49.10
2023-04-29T17:47:38.161Z,49.23
2023-04-29T17:50:05.176Z,49.13
2023-04-29T17:52:31.930Z,49.21
2023-04-29T17:55:00.048Z,50.17
2023-04-29T17:57:28.564Z,50.06
2023-04-29T17:59:56.235Z,50.51
2023-04-29T18:02:23.475Z,50.59
2023-04-29T18:04:52.948Z,50.74
2023-04-29T18:07:19.982Z,50.92
2023-04-29T18:09:46.856Z,51.00
2023-04-29T18:12:13.579Z,51.11
2023-04-29T18:14:40.305Z,51.97
2023-04-29T18:17:07.380Z,51.85
2023-04-29T18:19:34.517Z,51.97
2023-04-29T18:22:02.787Z,52.25
2023-04-29T18:24:29.503Z,52.55
2023-04-29T18:26:57.581Z,52.53
2023-04-29T18:29:26.076Z,53.20
2023-04-29T18:31:54.712Z,52.93
2023-04-29T18:34:21.590Z,53.13
2023-04-29T18:36:48.408Z,52.92
2023-04-29T18:39:15.152Z,52.79
2023-04-29T18:41:41.947Z,52.44
2023-04-29T18:44:08.711Z,52.69
2023-04-29T18:46:35.490Z,52.63
2023-04-29T18:49:02.243Z,52.59
2023-04-29T18:51:29.271Z,52.37
2023-04-29T18:53:55.993Z,52.63
2023-04-29T18:56:22.716Z,52.16
2023-04-29T18:58:50.223Z,52.40
2023-04-29T19:01:17.068Z,51.97
2023-04-29T19:03:43.759Z,51.98
2023-04-29T19:06:10.664Z,52.23
2023-04-29T19:08:37.499Z,51.88
2023-04-29T19:11:04.321Z,52.64
2023-04-29T19:13:31.111Z,52.17
2023-04-29T19:15:57.934Z,52.25
2023-04-29T19:18:24.828Z,52.10
2023-04-29T19:20:53.640Z,52.13
2023-04-29T19:23:21.461Z,52.41
2023-04-29T19:25:48.201Z,52.52
2023-04-29T19:28:15.151Z,52.43
2023-04-29T19:30:41.873Z,52.48
2023-04-29T19:33:08.667Z,52.45
2023-04-29T19:35:35.507Z,52.42
2023-04-29T19:38:02.510Z,52.85
2023-04-29T19:40:29.137Z,52.58
2023-04-29T19:42:56.351Z,52.63
2023-04-29T19:45:23.939Z,52.65
2023-04-29T19:47:50.883Z,52.89
2023-04-29T19:50:18.224Z,52.77
2023-04-29T19:52:45.108Z,52.86
2023-04-29T19:55:11.932Z,52.77
2023-04-29T19:57:38.843Z,53.06
2023-04-29T20:00:06.555Z,53.07
2023-04-29T20:02:33.472Z,53.38
2023-04-29T20:05:00.250Z,53.38
2023-04-29T20:07:26.953Z,53.24
2023-04-29T20:09:54.650Z,53.24
2023-04-29T20:12:21.962Z,53.27
2023-04-29T20:14:50.047Z,53.58
2023-04-29T20:17:17.690Z,53.56
2023-04-29T20:19:44.610Z,53.30
2023-04-29T20:22:11.368Z,52.94
2023-04-29T20:24:38.005Z,53.27
2023-04-29T20:27:04.720Z,52.99
2023-04-29T20:29:31.582Z,53.45
2023-04-29T20:31:58.463Z,53.60
2023-04-29T20:34:25.276Z,53.56
2023-04-29T20:36:52.586Z,53.73
2023-04-29T20:39:19.279Z,53.54
2023-04-29T20:41:45.902Z,53.54
2023-04-29T20:44:12.595Z,53.73
2023-04-29T20:46:40.237Z,53.31
2023-04-29T20:49:07.155Z,53.76
2023-04-29T20:51:34.062Z,53.52
2023-04-29T20:54:01.039Z,53.82
2023-04-29T20:56:28.149Z,53.59
2023-04-29T20:58:58.738Z,53.57
2023-04-29T21:01:25.812Z,53.66
2023-04-29T21:03:52.570Z,53.92
2023-04-29T21:06:19.696Z,54.07
2023-04-29T21:08:46.657Z,53.83
2023-04-29T21:11:13.545Z,53.78
2023-04-29T21:13:40.277Z,54.00
2023-04-29T21:16:07.080Z,53.76
2023-04-29T21:18:34.072Z,53.99
2023-04-29T21:21:00.927Z,54.26
2023-04-29T21:23:27.592Z,53.67
2023-04-29T21:25:54.903Z,54.16
2023-04-29T21:28:21.599Z,53.90
2023-04-29T21:30:49.174Z,54.20
2023-04-29T21:33:15.860Z,54.28
2023-04-29T21:35:43.339Z,54.31
2023-04-29T21:38:10.169Z,54.14
2023-04-29T21:40:42.217Z,53.99
2023-04-29T21:43:10.635Z,53.75
2023-04-29T21:45:37.865Z,54.17
2023-04-29T21:48:16.221Z,54.02
2023-04-29T21:50:43.967Z,54.23
2023-04-29T21:53:13.187Z,54.10
2023-04-29T21:55:41.413Z,53.96
2023-04-29T21:58:08.490Z,54.69
2023-04-29T22:00:36.717Z,54.48
2023-04-29T22:03:03.959Z,53.90
2023-04-29T22:05:31.458Z,54.51
2023-04-29T22:08:00.399Z,54.33
2023-04-29T22:10:27.710Z,53.85
2023-04-29T22:12:54.906Z,54.60
2023-04-29T22:15:28.918Z,54.24
2023-04-29T22:17:56.993Z,54.46
2023-04-29T22:20:24.189Z,54.13
2023-04-29T22:22:52.497Z,54.69
2023-04-29T22:25:21.653Z,54.68
2023-04-29T22:27:49.007Z,54.67
2023-04-29T22:30:17.683Z,54.70
2023-04-29T22:32:44.697Z,54.85
2023-04-29T22:35:11.570Z,54.72
2023-04-29T22:37:38.600Z,54.57
2023-04-29T22:40:08.749Z,55.06
2023-04-29T22:42:35.854Z,54.88
2023-04-29T22:45:02.666Z,54.86
2023-04-29T22:47:29.671Z,54.85
2023-04-29T22:49:56.581Z,54.41
2023-04-29T22:52:23.581Z,54.86
2023-04-29T22:54:50.206Z,54.97
2023-04-29T22:57:17.124Z,54.95
2023-04-29T22:59:43.868Z,55.27
2023-04-29T23:02:10.631Z,55.40
2023-04-29T23:04:37.478Z,55.41
2023-04-29T23:07:04.272Z,54.90
2023-04-29T23:09:31.007Z,55.07
2023-04-29T23:11:57.797Z,54.90
2023-04-29T23:14:24.528Z,55.02
2023-04-29T23:16:51.366Z,55.09
2023-04-29T23:19:18.184Z,55.08
2023-04-29T23:21:44.845Z,55.35
2023-04-29T23:24:11.573Z,55.58
2023-04-29T23:26:38.288Z,54.64
2023-04-29T23:29:05.005Z,55.13
2023-04-29T23:31:32.835Z,55.27
2023-04-29T23:33:59.731Z,55.12
2023-04-29T23:36:27.595Z,54.98
2023-04-29T23:38:55.663Z,55.33
2023-04-29T23:41:22.343Z,54.77
2023-04-29T23:43:49.010Z,55.24
2023-04-29T23:46:15.836Z,55.36
2023-04-29T23:48:42.559Z,55.12
2023-04-29T23:51:09.306Z,55.42
2023-04-29T23:53:42.754Z,55.13
2023-04-29T23:56:09.422Z,54.75
2023-04-29T23:58:36.273Z,55.01
